McGrew, NE (69353)

3:54 AM MDT on October 20, 2014 (GMT -0600)
Gering Nebraska | Change Station
CLOSE
Current Station
Personal Weather Station
Location: Gering, NE
Elevation: 3960 ft
Nearby Weather Stations

Elev 3960 ft 41.82 °N, 103.68 °W | Updated 4 seconds ago

Clear
Clear
41.1 °F
Feels Like 41 °F
N
0.0
Wind Variable Wind from West
Gusts 3.0 mph

Today
High -- | Low -- °F
--% Chance of Precip.
Yesterday
High -- | Low -- °F
Precip. -- in
7:12 AM 6:05 PM
Waning Crescent, 12% visible
Pressure 30.07 in
Visibility 10.0 miles
Clouds Clear
Windchill 41 °F
Dew Point 35 °F
Humidity 79%
Rainfall 0.00 in
Snow Depth Not available.
UV 0.0 out of 12
Pollen 2.60 out of 12
Air Quality Not available.
Flu Activity Sporadic
METAR KBFF 200853Z AUTO 32005KT 10SM CLR 03/02 A3013 RMK AO2 SLP181 T00280017 50002 $

More Conditions Fewer Conditions

Pressure 30.07 in
Visibility 10.0 miles
Clouds Clear
Windchill 41 °F
Dew Point 35 °F
Humidity 79%
Rainfall 0.00 in
Snow Depth Not available.
UV 0.0 out of 12
Pollen 2.60 out of 12
Air Quality Not available.
Flu Activity Sporadic
METAR KBFF 200853Z AUTO 32005KT 10SM CLR 03/02 A3013 RMK AO2 SLP181 T00280017 50002 $

More Conditions Fewer Conditions

10-Day Weather Forecast

Almanac

Astronomy

Oct. 20, 2014 Rise Set
Actual Time 7:12 AM MDT 6:05 PM MDT
Civil Twilight 6:44 AM MDT 6:33 PM MDT
Nautical Twilight 6:12 AM MDT 7:06 PM MDT
Astronomical Twilight 5:39 AM MDT 7:38 PM MDT
Moon 4:00 AM MDT 4:31 PM MDT
Length of Visible Light 11h 49m
Length of Day
10h 52m
Waning Crescent, 12% of the Moon is Illuminated
Today
Waning Crescent
Oct 23
New
Oct 30
First Quarter
Nov 6
Full
Nov 14
Last Quarter

Today's Extremes

State Highs State Lows

Community

WunderPhotos

Upload Photos

1,763,325 photos uploaded!

Nearby

Snow Depth

Station Depth Elevation
No new snow has been reported.

Earthquake Activity

City Distance Mag. Time & Date
No recent earthquake activity has been reported nearby.
Minimum magnitude displayed is 2.5.

Coastal Water Temperatures

Place Temperature
No Stations Reporting

Nearby Weather Stations